createdAt,value
2022-10-10T00:02:36.320Z,16.20
2022-10-10T00:07:39.727Z,15.79
2022-10-10T00:12:42.612Z,16.09
2022-10-10T00:17:46.366Z,16.50
2022-10-10T00:22:49.760Z,16.54
2022-10-10T00:27:53.482Z,16.47
2022-10-10T00:32:58.505Z,16.38
2022-10-10T00:38:02.315Z,16.50
2022-10-10T00:43:05.667Z,16.38
2022-10-10T00:48:12.604Z,16.35
2022-10-10T00:53:19.611Z,16.39
2022-10-10T00:58:23.606Z,16.41
2022-10-10T01:03:26.629Z,16.61
2022-10-10T01:08:30.721Z,16.44
2022-10-10T01:14:02.878Z,16.37
2022-10-10T01:19:24.362Z,16.60
2022-10-10T01:24:56.397Z,16.74
2022-10-10T01:30:07.953Z,16.61
2022-10-10T01:35:45.155Z,16.40
2022-10-10T01:40:54.448Z,16.49
2022-10-10T01:45:57.519Z,16.37
2022-10-10T01:51:23.263Z,16.49
2022-10-10T01:56:26.735Z,16.50
2022-10-10T02:02:01.508Z,16.48
2022-10-10T02:07:15.268Z,16.42
2022-10-10T02:12:20.958Z,16.53
2022-10-10T02:17:26.454Z,16.49
2022-10-10T02:22:30.262Z,16.60
2022-10-10T02:27:37.926Z,16.73
2022-10-10T02:32:49.688Z,16.71
2022-10-10T02:37:55.255Z,16.58
2022-10-10T02:43:01.359Z,16.81
2022-10-10T02:48:05.062Z,16.63
2022-10-10T02:53:08.212Z,16.56
2022-10-10T02:58:11.202Z,16.47
2022-10-10T03:03:14.202Z,16.49
2022-10-10T03:08:17.729Z,16.24
2022-10-10T03:13:20.807Z,16.12
2022-10-10T03:18:24.279Z,16.01
2022-10-10T03:23:27.784Z,15.99
2022-10-10T03:28:30.759Z,16.04
2022-10-10T03:33:35.351Z,16.00
2022-10-10T03:38:40.482Z,15.92
2022-10-10T03:43:43.799Z,15.81
2022-10-10T03:48:47.805Z,15.85
2022-10-10T03:53:50.706Z,15.74
2022-10-10T03:58:54.064Z,15.71
2022-10-10T04:03:57.000Z,15.74
2022-10-10T04:09:00.914Z,15.74
2022-10-10T04:14:03.835Z,15.73
2022-10-10T04:19:06.890Z,15.29
2022-10-10T04:24:11.374Z,15.22
2022-10-10T04:29:14.269Z,15.25
2022-10-10T04:34:17.262Z,14.91
2022-10-10T04:39:21.447Z,14.94
2022-10-10T04:44:24.350Z,15.03
2022-10-10T04:49:27.202Z,14.86
2022-10-10T04:54:30.900Z,14.86
2022-10-10T04:59:33.995Z,14.52
2022-10-10T05:04:37.324Z,14.93
2022-10-10T05:09:40.633Z,15.02
2022-10-10T05:14:47.967Z,15.31
2022-10-10T05:19:51.824Z,15.36
2022-10-10T05:24:55.448Z,15.87
2022-10-10T05:29:58.534Z,16.19
2022-10-10T05:35:02.025Z,16.24
2022-10-10T05:40:06.633Z,16.43
2022-10-10T05:45:10.295Z,16.50
2022-10-10T05:50:24.359Z,16.60
2022-10-10T05:55:27.719Z,16.66
2022-10-10T06:00:30.891Z,16.82
2022-10-10T06:05:33.861Z,16.74
2022-10-10T06:10:39.208Z,16.83
2022-10-10T06:15:42.659Z,16.62
2022-10-10T06:20:46.089Z,16.73
2022-10-10T06:25:53.457Z,16.88
2022-10-10T06:31:01.154Z,17.02
2022-10-10T06:36:08.704Z,17.51
2022-10-10T06:41:12.731Z,18.01
2022-10-10T06:46:15.591Z,18.19
2022-10-10T06:51:18.886Z,17.73
2022-10-10T06:56:27.370Z,17.70
2022-10-10T07:01:30.775Z,17.74
2022-10-10T07:06:35.148Z,17.52
2022-10-10T07:11:38.913Z,17.46
2022-10-10T07:16:42.526Z,17.52
2022-10-10T07:21:45.508Z,17.30
2022-10-10T07:26:57.093Z,17.30
2022-10-10T07:32:06.612Z,16.60
2022-10-10T07:37:09.428Z,16.09
2022-10-10T07:42:12.582Z,16.30
2022-10-10T07:47:15.734Z,16.33
2022-10-10T07:52:18.637Z,16.35
2022-10-10T07:57:22.202Z,15.67
2022-10-10T08:02:25.346Z,15.55
2022-10-10T08:07:29.012Z,15.62
2022-10-10T08:12:32.376Z,15.70
2022-10-10T08:17:35.288Z,15.68
2022-10-10T08:22:38.409Z,15.79
2022-10-10T08:27:41.980Z,15.91
2022-10-10T08:32:45.041Z,15.64
2022-10-10T08:37:48.024Z,15.66
2022-10-10T08:42:55.293Z,15.62
2022-10-10T08:48:22.141Z,15.70
2022-10-10T08:53:32.314Z,16.04
2022-10-10T08:58:40.730Z,16.32
2022-10-10T09:03:50.885Z,16.52
2022-10-10T09:09:09.590Z,16.83
2022-10-10T09:14:44.946Z,17.19
2022-10-10T09:20:21.425Z,17.17
2022-10-10T09:25:31.596Z,17.40
2022-10-10T09:30:40.280Z,17.34
2022-10-10T09:35:45.296Z,17.33
2022-10-10T09:40:55.365Z,16.67
2022-10-10T09:45:59.654Z,16.49
2022-10-10T09:51:09.879Z,16.32
2022-10-10T09:56:18.499Z,16.25
2022-10-10T10:01:26.783Z,16.05
2022-10-10T10:06:31.007Z,15.81
2022-10-10T10:11:42.611Z,15.93
2022-10-10T10:16:45.615Z,16.19
2022-10-10T10:21:52.260Z,16.81
2022-10-10T10:26:55.928Z,16.96
2022-10-10T10:32:13.155Z,17.31
2022-10-10T10:37:27.898Z,17.53
2022-10-10T10:42:44.337Z,17.93
2022-10-10T10:48:21.014Z,17.98
2022-10-10T10:53:34.588Z,18.16
2022-10-10T11:05:21.895Z,18.55
2022-10-10T11:10:27.688Z,18.79
2022-10-10T11:16:06.018Z,18.82
2022-10-10T11:21:33.791Z,18.55
2022-10-10T11:26:42.705Z,18.28
2022-10-10T11:31:55.599Z,17.87
2022-10-10T11:37:07.364Z,17.55
2022-10-10T11:42:20.094Z,17.14
2022-10-10T11:47:36.468Z,17.09
2022-10-10T11:52:57.788Z,17.36
2022-10-10T11:58:07.177Z,17.21
2022-10-10T12:03:11.437Z,16.85
2022-10-10T12:08:20.270Z,16.90
2022-10-10T12:13:38.801Z,16.92
2022-10-10T12:18:47.354Z,17.75
2022-10-10T12:24:09.893Z,18.38
2022-10-10T12:29:12.985Z,18.69
2022-10-10T12:34:48.285Z,19.07
2022-10-10T12:40:06.746Z,19.30
2022-10-10T12:45:31.693Z,19.33
2022-10-10T12:50:38.912Z,19.30
2022-10-10T12:55:50.765Z,19.44
2022-10-10T13:00:55.566Z,20.00
2022-10-10T13:06:05.575Z,20.14
2022-10-10T13:11:17.029Z,20.71
2022-10-10T13:16:23.284Z,20.80
2022-10-10T13:21:33.040Z,21.18
2022-10-10T13:26:44.522Z,20.93
2022-10-10T13:31:47.932Z,20.91
2022-10-10T13:36:54.382Z,20.91
2022-10-10T13:41:57.631Z,21.33
2022-10-10T13:47:44.066Z,21.56
2022-10-10T13:52:47.522Z,20.46
2022-10-10T13:57:52.575Z,20.73
2022-10-10T14:02:55.932Z,21.51
2022-10-10T14:08:00.006Z,21.68
2022-10-10T14:13:04.053Z,22.08
2022-10-10T14:18:22.616Z,22.55
2022-10-10T14:23:26.361Z,22.63
2022-10-10T14:28:32.797Z,23.21
2022-10-10T14:33:36.258Z,22.90
2022-10-10T14:38:39.168Z,22.38
2022-10-10T14:43:45.939Z,22.42
2022-10-10T14:48:49.103Z,22.78
2022-10-10T14:54:12.557Z,22.46
2022-10-10T14:59:48.367Z,21.46
2022-10-10T15:04:44.015Z,20.53
2022-10-10T15:10:27.541Z,19.01
2022-10-10T15:15:13.935Z,18.44
2022-10-10T15:20:20.630Z,17.93
2022-10-10T15:25:24.477Z,18.25
2022-10-10T15:30:27.421Z,18.62
2022-10-10T15:35:44.878Z,18.59
2022-10-10T15:41:01.825Z,17.84
2022-10-10T15:46:09.324Z,17.68
2022-10-10T15:51:13.227Z,17.70
2022-10-10T15:56:17.174Z,17.42
2022-10-10T16:01:21.031Z,17.12
2022-10-10T16:06:26.186Z,17.06
2022-10-10T16:11:29.337Z,16.89
2022-10-10T16:16:32.895Z,17.03
2022-10-10T16:21:36.141Z,16.73
2022-10-10T16:26:39.960Z,16.42
2022-10-10T16:31:43.509Z,16.44
2022-10-10T16:36:47.049Z,16.21
2022-10-10T16:41:49.984Z,16.10
2022-10-10T16:46:53.351Z,16.11
2022-10-10T16:51:56.247Z,15.82
2022-10-10T16:56:59.951Z,15.63
2022-10-10T17:02:03.506Z,15.54
2022-10-10T17:07:06.912Z,15.41
2022-10-10T17:12:10.803Z,15.66
2022-10-10T17:17:14.313Z,15.03
2022-10-10T17:22:17.465Z,14.92
2022-10-10T17:27:20.560Z,14.76
2022-10-10T17:32:24.863Z,14.67
2022-10-10T17:37:27.817Z,14.47
2022-10-10T17:42:31.618Z,14.32
2022-10-10T17:47:34.894Z,14.07
2022-10-10T17:52:37.834Z,14.08
2022-10-10T17:57:42.075Z,13.91
2022-10-10T18:02:47.319Z,13.84
2022-10-10T18:07:50.784Z,13.64
2022-10-10T18:12:53.965Z,13.53
2022-10-10T18:17:57.292Z,13.27
2022-10-10T18:23:00.718Z,13.34
2022-10-10T18:28:04.092Z,13.23
2022-10-10T18:33:07.775Z,13.21
2022-10-10T18:38:10.693Z,13.19
2022-10-10T18:43:14.694Z,13.10
2022-10-10T18:48:17.594Z,12.82
2022-10-10T18:53:21.302Z,12.90
2022-10-10T18:58:24.347Z,12.81
2022-10-10T19:03:28.285Z,12.69
2022-10-10T19:08:32.135Z,12.49
2022-10-10T19:13:35.639Z,12.55
2022-10-10T19:18:39.185Z,12.33
2022-10-10T19:23:43.539Z,12.47
2022-10-10T19:28:47.273Z,12.31
2022-10-10T19:33:52.781Z,12.09
2022-10-10T19:38:56.690Z,12.17
2022-10-10T19:44:02.571Z,12.01
2022-10-10T19:49:06.584Z,12.08
2022-10-10T19:54:09.576Z,11.88
2022-10-10T19:59:12.493Z,11.86
2022-10-10T20:04:15.851Z,11.87
2022-10-10T20:09:19.583Z,11.74
2022-10-10T20:14:22.513Z,11.44
2022-10-10T20:19:26.451Z,11.75
2022-10-10T20:24:29.839Z,11.67
2022-10-10T20:29:33.712Z,11.77
2022-10-10T20:34:36.817Z,11.71
2022-10-10T20:39:40.904Z,11.65
2022-10-10T20:44:44.293Z,11.69
2022-10-10T20:49:47.627Z,11.63
2022-10-10T20:54:50.519Z,11.62
2022-10-10T20:59:54.033Z,11.65
2022-10-10T21:04:57.004Z,11.67
2022-10-10T21:10:00.843Z,11.51
2022-10-10T21:15:04.621Z,11.37
2022-10-10T21:20:08.550Z,11.44
2022-10-10T21:25:13.383Z,11.50
2022-10-10T21:30:17.386Z,11.42
2022-10-10T21:35:20.775Z,11.39
2022-10-10T21:40:24.106Z,11.34
2022-10-10T21:45:26.982Z,11.23
2022-10-10T21:50:30.229Z,11.33
2022-10-10T21:55:33.693Z,11.11
2022-10-10T22:00:36.804Z,11.08
2022-10-10T22:05:41.072Z,11.07
2022-10-10T22:10:45.119Z,11.16
2022-10-10T22:15:48.595Z,11.11
2022-10-10T22:20:52.280Z,11.11
2022-10-10T22:25:55.267Z,10.94
2022-10-10T22:31:04.514Z,11.08
2022-10-10T22:36:08.493Z,10.89
2022-10-10T22:41:12.969Z,11.06
2022-10-10T22:46:16.662Z,11.10
2022-10-10T22:51:19.788Z,10.92
2022-10-10T22:56:23.354Z,10.92
2022-10-10T23:01:27.006Z,10.99
2022-10-10T23:06:30.114Z,10.96
2022-10-10T23:11:33.720Z,10.94
2022-10-10T23:16:40.580Z,10.94
2022-10-10T23:21:44.390Z,10.92
2022-10-10T23:26:47.363Z,10.97
2022-10-10T23:31:50.338Z,10.86
2022-10-10T23:36:53.462Z,10.96
2022-10-10T23:41:57.434Z,10.97
2022-10-10T23:47:00.343Z,10.82
2022-10-10T23:52:03.295Z,10.89
2022-10-10T23:57:06.600Z,10.98
